createdAt,value
2018-09-02T00:02:44.793Z,1.40
2018-09-02T00:05:44.032Z,1.37
2018-09-02T00:08:44.772Z,1.23
2018-09-02T00:11:44.221Z,1.20
2018-09-02T00:14:44.702Z,1.37
2018-09-02T00:17:45.202Z,1.40
2018-09-02T00:20:46.094Z,1.40
2018-09-02T00:23:46.373Z,1.40
2018-09-02T00:26:46.868Z,1.33
2018-09-02T00:29:47.677Z,1.60
2018-09-02T00:32:47.210Z,1.27
2018-09-02T00:35:46.863Z,1.30
2018-09-02T00:38:47.148Z,1.50
2018-09-02T00:41:48.049Z,1.47
2018-09-02T00:44:49.899Z,1.50
2018-09-02T00:47:50.234Z,1.50
2018-09-02T00:50:49.296Z,1.50
2018-09-02T00:53:48.958Z,1.60
2018-09-02T00:56:48.947Z,1.77
2018-09-02T00:59:48.046Z,1.60
2018-09-02T01:02:48.529Z,1.53
2018-09-02T01:05:49.020Z,1.50
2018-09-02T01:08:49.306Z,1.47
2018-09-02T01:11:48.753Z,1.60
2018-09-02T01:14:49.658Z,1.60
2018-09-02T01:17:48.670Z,1.40
2018-09-02T01:20:48.223Z,1.50
2018-09-02T01:23:47.646Z,1.80
2018-09-02T01:26:48.433Z,1.23
2018-09-02T01:29:49.054Z,1.60
2018-09-02T01:32:48.521Z,1.70
2018-09-02T01:35:49.724Z,1.20
2018-09-02T01:38:50.618Z,1.47
2018-09-02T01:41:51.388Z,1.40
2018-09-02T01:44:52.750Z,1.60
2018-09-02T01:47:52.407Z,1.40
2018-09-02T01:50:52.360Z,1.67
2018-09-02T01:53:52.651Z,1.50
2018-09-02T01:56:50.285Z,1.50
2018-09-02T01:59:50.894Z,1.67
2018-09-02T02:02:50.129Z,1.83
2018-09-02T02:05:51.202Z,1.40
2018-09-02T02:08:50.480Z,1.43
2018-09-02T02:11:49.778Z,1.70
2018-09-02T02:14:50.109Z,1.67
2018-09-02T02:17:49.866Z,1.80
2018-09-02T02:20:49.850Z,1.30
2018-09-02T02:23:50.472Z,1.80
2018-09-02T02:26:49.650Z,1.70
2018-09-02T02:29:50.364Z,1.57
2018-09-02T02:32:50.824Z,1.77
2018-09-02T02:35:50.895Z,1.70
2018-09-02T02:38:50.338Z,1.70
2018-09-02T02:41:50.795Z,1.33
2018-09-02T02:44:51.110Z,1.80
2018-09-02T02:47:51.593Z,1.70
2018-09-02T02:50:51.662Z,1.30
2018-09-02T02:53:52.564Z,1.70
2018-09-02T02:56:51.798Z,1.57
2018-09-02T02:59:52.710Z,1.60
2018-09-02T03:02:51.940Z,1.40
2018-09-02T03:05:52.014Z,1.60
2018-09-02T03:08:51.381Z,1.43
2018-09-02T03:11:50.914Z,1.80
2018-09-02T03:14:50.688Z,1.57
2018-09-02T03:17:50.796Z,1.57
2018-09-02T03:20:51.742Z,1.70
2018-09-02T03:23:52.217Z,1.70
2018-09-02T03:26:52.079Z,1.50
2018-09-02T03:29:53.323Z,1.47
2018-09-02T03:32:54.311Z,1.60
2018-09-02T03:35:54.384Z,1.57
2018-09-02T03:38:54.237Z,1.50
2018-09-02T03:41:54.497Z,1.80
2018-09-02T03:44:53.641Z,1.40
2018-09-02T03:47:53.841Z,1.73
2018-09-02T03:50:53.653Z,1.90
2018-09-02T03:53:53.655Z,1.77
2018-09-02T03:56:53.189Z,1.63
2018-09-02T03:59:53.603Z,1.80
2018-09-02T04:02:53.866Z,1.50
2018-09-02T04:05:52.924Z,1.80
2018-09-02T04:08:52.641Z,1.60
2018-09-02T04:11:52.293Z,1.77
2018-09-02T04:14:52.783Z,1.80
2018-09-02T04:17:52.347Z,1.90
2018-09-02T04:20:51.759Z,1.60
2018-09-02T04:23:52.354Z,1.90
2018-09-02T04:26:52.633Z,1.60
2018-09-02T04:29:53.033Z,1.60
2018-09-02T04:32:52.980Z,1.50
2018-09-02T04:35:53.260Z,1.60
2018-09-02T04:38:53.944Z,1.90
2018-09-02T04:41:53.735Z,1.90
2018-09-02T04:44:54.518Z,1.70
2018-09-02T04:47:54.584Z,1.50
2018-09-02T04:50:54.653Z,1.63
2018-09-02T04:53:54.093Z,1.63
2018-09-02T04:56:54.164Z,1.40
2018-09-02T04:59:54.445Z,1.70
2018-09-02T05:02:54.305Z,1.70
2018-09-02T05:05:53.861Z,1.83
2018-09-02T05:08:53.307Z,1.73
2018-09-02T05:11:52.235Z,1.80
2018-09-02T05:14:51.361Z,1.60
2018-09-02T05:17:52.561Z,1.30
2018-09-02T05:20:52.725Z,2.00
2018-09-02T05:23:53.804Z,1.43
2018-09-02T05:26:54.449Z,1.70
2018-09-02T05:29:54.931Z,1.50
2018-09-02T05:32:53.955Z,1.60
2018-09-02T05:35:54.976Z,1.67
2018-09-02T05:38:54.099Z,1.70
2018-09-02T05:41:53.492Z,1.70
2018-09-02T05:44:53.189Z,1.53
2018-09-02T05:47:53.472Z,1.47
2018-09-02T05:50:52.620Z,1.50
2018-09-02T05:53:52.566Z,1.63
2018-09-02T05:56:52.142Z,1.30
2018-09-02T05:59:52.075Z,1.60
2018-09-02T06:02:52.459Z,1.67
2018-09-02T06:05:51.798Z,1.40
2018-09-02T06:08:50.771Z,1.60
2018-09-02T06:11:51.953Z,1.40
2018-09-02T06:14:51.730Z,1.47
2018-09-02T06:17:52.353Z,1.57
2018-09-02T06:20:51.725Z,1.40
2018-09-02T06:23:52.516Z,1.30
2018-09-02T06:26:52.704Z,1.30
2018-09-02T06:29:53.011Z,1.30
2018-09-02T06:32:54.088Z,1.43
2018-09-02T06:35:55.219Z,1.40
2018-09-02T06:38:56.020Z,1.53
2018-09-02T06:41:55.574Z,1.47
2018-09-02T06:44:54.788Z,1.40
2018-09-02T06:47:54.656Z,1.57
2018-09-02T06:50:55.463Z,1.80
2018-09-02T06:53:55.842Z,1.07
2018-09-02T06:56:55.901Z,1.63
2018-09-02T06:59:56.805Z,1.40
2018-09-02T07:02:56.884Z,1.03
2018-09-02T07:05:57.613Z,1.20
2018-09-02T07:08:57.212Z,1.40
2018-09-02T07:11:56.697Z,1.50
2018-09-02T07:14:56.944Z,1.40
2018-09-02T07:17:56.290Z,1.20
2018-09-02T07:20:55.831Z,1.40
2018-09-02T07:23:54.755Z,1.23
2018-09-02T07:26:55.145Z,1.23
2018-09-02T07:29:54.834Z,1.30
2018-09-02T07:32:55.476Z,1.20
2018-09-02T07:35:55.972Z,1.20
2018-09-02T07:38:55.202Z,1.40
2018-09-02T07:41:56.107Z,1.07
2018-09-02T07:44:56.606Z,1.10
2018-09-02T07:47:56.041Z,1.00
2018-09-02T07:50:57.170Z,1.07
2018-09-02T07:53:58.483Z,1.50
2018-09-02T07:56:56.876Z,1.30
2018-09-02T07:59:56.747Z,1.30
2018-09-02T08:02:56.178Z,1.20
2018-09-02T08:05:56.873Z,1.10
2018-09-02T08:08:58.104Z,1.50
2018-09-02T08:11:57.429Z,1.37
2018-09-02T08:14:57.583Z,1.33
2018-09-02T08:17:58.628Z,1.27
2018-09-02T08:20:58.246Z,1.70
2018-09-02T08:23:57.607Z,1.17
2018-09-02T08:26:57.577Z,1.30
2018-09-02T08:29:58.903Z,1.50
2018-09-02T08:32:59.321Z,1.37
2018-09-02T08:36:00.181Z,1.40
2018-09-02T08:39:00.150Z,1.40
2018-09-02T08:42:01.206Z,1.20
2018-09-02T08:45:00.910Z,1.20
2018-09-02T08:48:02.441Z,1.50
2018-09-02T08:51:03.459Z,1.33
2018-09-02T08:54:02.581Z,1.30
2018-09-02T08:57:02.766Z,1.10
2018-09-02T09:00:02.413Z,1.33
2018-09-02T09:03:02.703Z,1.40
2018-09-02T09:06:02.235Z,1.07
2018-09-02T09:09:01.802Z,1.37
2018-09-02T09:12:00.912Z,1.13
2018-09-02T09:15:02.859Z,1.10
2018-09-02T09:18:04.203Z,1.20
2018-09-02T09:21:04.954Z,1.40
2018-09-02T09:24:13.724Z,1.50
2018-09-02T09:27:14.643Z,1.20
2018-09-02T09:30:13.443Z,1.50
2018-09-02T09:33:12.478Z,1.30
2018-09-02T09:36:12.537Z,1.37
2018-09-02T09:39:14.068Z,1.30
2018-09-02T09:42:15.809Z,1.30
2018-09-02T09:45:17.344Z,1.27
2018-09-02T09:48:17.409Z,1.37
2018-09-02T09:51:19.580Z,1.37
2018-09-02T09:54:19.371Z,1.07
2018-09-02T09:57:19.710Z,1.33
2018-09-02T10:00:21.238Z,1.30
2018-09-02T10:03:21.518Z,1.40
2018-09-02T10:06:21.592Z,1.30
2018-09-02T10:09:25.823Z,1.33
2018-09-02T10:12:25.489Z,1.27
2018-09-02T10:15:25.348Z,1.30
2018-09-02T10:18:25.628Z,1.30
2018-09-02T10:21:25.914Z,1.10
2018-09-02T10:24:26.973Z,1.40
2018-09-02T10:27:26.334Z,1.17
2018-09-02T10:30:26.859Z,1.20
2018-09-02T10:33:27.055Z,1.27
2018-09-02T10:36:26.045Z,1.00
2018-09-02T10:39:25.630Z,1.30
2018-09-02T10:42:24.932Z,1.43
2018-09-02T10:45:24.372Z,1.40
2018-09-02T10:48:23.510Z,1.27
2018-09-02T10:51:25.556Z,1.30
2018-09-02T10:54:25.431Z,1.43
2018-09-02T10:57:24.326Z,1.30
2018-09-02T11:00:25.566Z,1.43
2018-09-02T11:03:26.364Z,1.20
2018-09-02T11:06:26.932Z,1.40
2018-09-02T11:09:27.636Z,1.27
2018-09-02T11:12:26.789Z,1.13
2018-09-02T11:15:26.947Z,1.43
2018-09-02T11:18:26.752Z,1.30
2018-09-02T11:21:26.255Z,1.23
2018-09-02T11:24:26.748Z,1.60
2018-09-02T11:27:26.390Z,1.57
2018-09-02T11:30:27.415Z,1.20
2018-09-02T11:33:26.976Z,1.10
2018-09-02T11:36:28.244Z,1.40
2018-09-02T11:39:29.594Z,1.30
2018-09-02T11:42:29.040Z,1.67
2018-09-02T11:45:28.685Z,1.30
2018-09-02T11:48:28.389Z,1.20
2018-09-02T11:51:29.290Z,1.30
2018-09-02T11:54:29.966Z,1.53
2018-09-02T11:57:30.543Z,1.40
2018-09-02T12:00:29.453Z,1.60
2018-09-02T12:03:29.958Z,1.50
2018-09-02T12:06:29.216Z,1.40
2018-09-02T12:09:29.256Z,1.40
2018-09-02T12:12:29.732Z,1.37
2018-09-02T12:15:29.591Z,1.30
2018-09-02T12:18:29.244Z,1.53
2018-09-02T12:21:28.898Z,1.40
2018-09-02T12:24:29.139Z,1.40
2018-09-02T12:27:28.197Z,1.40
2018-09-02T12:30:27.861Z,1.43
2018-09-02T12:33:27.294Z,1.50
2018-09-02T12:36:26.599Z,1.40
2018-09-02T12:39:27.145Z,1.23
2018-09-02T12:42:27.301Z,1.20
2018-09-02T12:45:27.572Z,1.30
2018-09-02T12:48:27.851Z,1.33
2018-09-02T12:51:28.351Z,1.50
2018-09-02T12:54:27.782Z,1.30
2018-09-02T12:57:27.433Z,1.20
2018-09-02T13:00:27.705Z,1.53
2018-09-02T13:03:28.839Z,1.50
2018-09-02T13:06:28.652Z,1.37
2018-09-02T13:09:28.587Z,1.40
2018-09-02T13:12:27.569Z,1.43
2018-09-02T13:15:30.093Z,1.43
2018-09-02T13:18:30.218Z,1.40
2018-09-02T13:21:30.048Z,1.50
2018-09-02T13:24:32.148Z,1.47
2018-09-02T13:27:33.560Z,1.33
2018-09-02T13:30:34.264Z,1.40
2018-09-02T13:33:34.167Z,1.57
2018-09-02T13:36:33.993Z,1.40
2018-09-02T13:39:33.296Z,1.50
2018-09-02T13:42:33.088Z,1.43
2018-09-02T13:45:33.149Z,1.50
2018-09-02T13:48:32.371Z,1.70
2018-09-02T13:51:33.035Z,1.33
2018-09-02T13:54:33.250Z,1.40
2018-09-02T13:57:33.641Z,1.57
2018-09-02T14:00:32.862Z,1.80
2018-09-02T14:03:32.731Z,1.60
2018-09-02T14:06:32.025Z,1.50
2018-09-02T14:09:33.413Z,1.47
2018-09-02T14:12:32.690Z,1.43
2018-09-02T14:15:32.496Z,1.47
2018-09-02T14:18:32.444Z,1.57
2018-09-02T14:21:32.519Z,1.37
2018-09-02T14:24:31.749Z,1.60
2018-09-02T14:27:32.580Z,1.73
2018-09-02T14:30:32.303Z,1.70
2018-09-02T14:33:33.001Z,1.80
2018-09-02T14:36:34.030Z,1.60
2018-09-02T14:39:34.611Z,1.80
2018-09-02T14:42:34.254Z,1.80
2018-09-02T14:45:34.117Z,1.30
2018-09-02T14:48:34.193Z,1.90
2018-09-02T14:51:34.469Z,1.80
2018-09-02T14:54:34.530Z,1.80
2018-09-02T14:57:34.484Z,1.40
2018-09-02T15:00:33.588Z,1.33
2018-09-02T15:03:33.697Z,1.80
2018-09-02T15:06:33.557Z,1.63
2018-09-02T15:09:33.418Z,1.57
2018-09-02T15:12:33.882Z,1.77
2018-09-02T15:15:34.188Z,1.30
2018-09-02T15:18:35.090Z,1.70
2018-09-02T15:21:34.740Z,1.60
2018-09-02T15:24:34.391Z,1.73
2018-09-02T15:27:37.599Z,1.70
2018-09-02T15:30:37.048Z,1.80
2018-09-02T15:33:36.449Z,1.90
2018-09-02T15:36:36.035Z,1.80
2018-09-02T15:39:37.280Z,1.83
2018-09-02T15:42:36.898Z,1.67
2018-09-02T15:45:36.984Z,1.47
2018-09-02T15:48:37.118Z,1.77
2018-09-02T15:51:36.228Z,1.60
2018-09-02T15:54:36.864Z,1.60
2018-09-02T15:57:38.926Z,1.57
2018-09-02T16:00:38.801Z,1.57
2018-09-02T16:03:38.196Z,1.57
2018-09-02T16:06:38.093Z,1.60
2018-09-02T16:09:37.938Z,1.80
2018-09-02T16:12:38.010Z,2.00
2018-09-02T16:15:37.242Z,2.00
2018-09-02T16:18:38.360Z,1.67
2018-09-02T16:21:38.636Z,1.70
2018-09-02T16:24:38.821Z,2.00
2018-09-02T16:27:38.151Z,2.00
2018-09-02T16:30:38.222Z,1.50
2018-09-02T16:33:38.950Z,1.93
2018-09-02T16:36:39.308Z,2.00
2018-09-02T16:39:39.064Z,1.80
2018-09-02T16:42:39.332Z,1.90
2018-09-02T16:45:38.568Z,1.80
2018-09-02T16:48:38.019Z,1.60
2018-09-02T16:51:37.778Z,2.00
2018-09-02T16:54:37.842Z,1.70
2018-09-02T16:57:37.088Z,1.70
2018-09-02T17:00:38.091Z,1.50
2018-09-02T17:03:43.163Z,1.67
2018-09-02T17:06:45.021Z,1.70
2018-09-02T17:09:44.343Z,1.70
2018-09-02T17:12:43.868Z,1.83
2018-09-02T17:15:44.865Z,2.10
2018-09-02T17:18:44.515Z,1.80
2018-09-02T17:21:44.202Z,1.63
2018-09-02T17:24:44.067Z,1.73
2018-09-02T17:27:43.830Z,2.00
2018-09-02T17:30:43.884Z,2.10
2018-09-02T17:33:46.168Z,2.00
2018-09-02T17:36:45.400Z,1.93
2018-09-02T17:39:44.842Z,1.90
2018-09-02T17:42:45.749Z,1.60
2018-09-02T17:45:46.514Z,1.80
2018-09-02T17:48:46.830Z,1.70
2018-09-02T17:51:47.196Z,1.77
2018-09-02T17:54:47.592Z,1.80
2018-09-02T17:57:46.721Z,1.73
2018-09-02T18:00:55.343Z,1.80
2018-09-02T18:03:55.941Z,1.70
2018-09-02T18:06:56.506Z,1.93
2018-09-02T18:09:57.200Z,1.90
2018-09-02T18:12:57.478Z,1.90
2018-09-02T18:15:58.204Z,1.77
2018-09-02T18:18:58.047Z,1.60
2018-09-02T18:21:58.485Z,1.53
2018-09-02T18:24:58.618Z,1.57
2018-09-02T18:28:03.058Z,1.93
2018-09-02T18:31:03.984Z,1.80
2018-09-02T18:34:04.047Z,1.80
2018-09-02T18:37:03.908Z,2.00
2018-09-02T18:40:04.403Z,1.90
2018-09-02T18:43:05.920Z,1.70
2018-09-02T18:46:07.667Z,1.80
2018-09-02T18:49:07.742Z,1.60
2018-09-02T18:52:08.435Z,1.70
2018-09-02T18:55:08.360Z,1.70
2018-09-02T18:58:10.039Z,2.10
2018-09-02T19:01:10.521Z,1.83
2018-09-02T19:04:10.712Z,2.03
2018-09-02T19:07:10.408Z,1.77
2018-09-02T19:10:11.983Z,1.87
2018-09-02T19:13:12.592Z,1.80
2018-09-02T19:16:12.789Z,2.00
2018-09-02T19:19:13.864Z,1.90
2018-09-02T19:22:14.235Z,1.97
2018-09-02T19:25:14.225Z,1.90
2018-09-02T19:28:15.536Z,1.80
2018-09-02T19:31:16.650Z,1.80
2018-09-02T19:34:18.043Z,1.50
2018-09-02T19:37:19.297Z,1.63
2018-09-02T19:40:18.584Z,1.83
2018-09-02T19:43:19.784Z,2.10
2018-09-02T19:46:20.310Z,1.70
2018-09-02T19:49:20.616Z,2.13
2018-09-02T19:52:22.056Z,2.00
2018-09-02T19:55:22.435Z,1.67
2018-09-02T19:58:22.294Z,1.80
2018-09-02T20:01:23.207Z,1.60
2018-09-02T20:04:22.848Z,1.60
2018-09-02T20:07:23.341Z,1.60
2018-09-02T20:10:24.031Z,1.63
2018-09-02T20:13:24.466Z,2.00
2018-09-02T20:16:23.958Z,1.83
2018-09-02T20:19:24.615Z,1.63
2018-09-02T20:22:26.193Z,1.70
2018-09-02T20:25:25.216Z,1.80
2018-09-02T20:28:26.121Z,1.80
2018-09-02T20:31:26.184Z,1.60
2018-09-02T20:34:26.061Z,1.70
2018-09-02T20:37:24.866Z,1.73
2018-09-02T20:40:25.669Z,1.70
2018-09-02T20:43:25.839Z,1.53
2018-09-02T20:46:25.701Z,1.63
2018-09-02T20:49:25.781Z,1.80
2018-09-02T20:52:26.411Z,1.70
2018-09-02T20:55:26.336Z,1.73
2018-09-02T20:58:26.195Z,1.90
2018-09-02T21:01:27.093Z,1.63
2018-09-02T21:04:26.753Z,2.13
2018-09-02T21:07:26.772Z,1.90
2018-09-02T21:10:26.462Z,1.43
2018-09-02T21:13:26.951Z,1.70
2018-09-02T21:16:27.344Z,1.47
2018-09-02T21:19:27.304Z,1.70
2018-09-02T21:22:27.159Z,1.80
2018-09-02T21:25:26.607Z,1.90
2018-09-02T21:28:26.787Z,1.77
2018-09-02T21:31:26.330Z,1.77
2018-09-02T21:34:25.559Z,1.80
2018-09-02T21:37:25.005Z,2.00
2018-09-02T21:40:26.106Z,1.70
2018-09-02T21:43:25.477Z,2.00
2018-09-02T21:46:25.429Z,1.83
2018-09-02T21:49:25.489Z,1.90
2018-09-02T21:52:25.150Z,1.93
2018-09-02T21:55:25.027Z,2.23
2018-09-02T21:58:24.615Z,1.70
2018-09-02T22:01:24.304Z,1.70
2018-09-02T22:04:23.545Z,1.80
2018-09-02T22:07:23.939Z,1.83
2018-09-02T22:10:24.095Z,1.80
2018-09-02T22:13:24.387Z,1.60
2018-09-02T22:16:24.024Z,1.30
2018-09-02T22:19:23.888Z,1.60
2018-09-02T22:22:26.879Z,1.40
2018-09-02T22:25:27.800Z,1.40
2018-09-02T22:28:27.997Z,1.33
2018-09-02T22:31:28.663Z,1.40
2018-09-02T22:34:28.620Z,1.00
2018-09-02T22:37:28.176Z,1.30
2018-09-02T22:40:28.981Z,1.40
2018-09-02T22:43:29.177Z,1.40
2018-09-02T22:46:29.739Z,1.40
2018-09-02T22:49:30.647Z,1.37
2018-09-02T22:52:31.543Z,1.40
2018-09-02T22:55:33.406Z,1.00
2018-09-02T22:58:33.980Z,1.20
2018-09-02T23:01:35.737Z,1.10
2018-09-02T23:04:35.393Z,1.00
2018-09-02T23:07:36.080Z,1.30
2018-09-02T23:10:36.773Z,1.00
2018-09-02T23:13:37.351Z,0.90
2018-09-02T23:16:36.283Z,1.10
2018-09-02T23:19:36.435Z,1.13
2018-09-02T23:22:35.901Z,1.20
2018-09-02T23:25:34.394Z,0.77
2018-09-02T23:28:34.653Z,0.90
2018-09-02T23:31:34.093Z,0.77
2018-09-02T23:34:34.615Z,0.83
2018-09-02T23:37:34.493Z,1.00
2018-09-02T23:40:34.535Z,1.07
2018-09-02T23:43:35.447Z,1.00
2018-09-02T23:46:35.201Z,1.10
2018-09-02T23:49:34.862Z,1.10
2018-09-02T23:52:37.785Z,0.80
2018-09-02T23:55:38.433Z,0.93
2018-09-02T23:58:39.700Z,0.93
